Time;durP1;ratioP1;P1;durP2;ratioP2;P2;SDS_P1;SDS_P2;PMS_P1;PMS_P2;Temp;Humidity;BMP_temperature;BMP_pressure;BME280_temperature;BME280_humidity;BME280_pressure;Samples;Min_cycle;Max_cycle;Signal;HPM_P1;HPM_P2
2022/04/17 00:01:05;;;;;;;37.80;35.25;;;;;;;11.44;100.00;101174.19;4991571;28;20559;-91
2022/04/17 00:03:34;;;;;;;33.00;30.95;;;;;;;11.97;100.00;101175.34;4993721;28;20081;-91
2022/04/17 00:06:05;;;;;;;31.52;29.17;;;;;;;11.11;100.00;101182.06;4992460;28;20062;-91
2022/04/17 00:08:31;;;;;;;35.75;32.33;;;;;;;11.43;100.00;101188.50;4991828;28;20496;-91
2022/04/17 00:11:01;;;;;;;33.42;31.40;;;;;;;11.31;100.00;101194.59;4992369;28;20138;-90
2022/04/17 00:13:28;;;;;;;30.15;28.02;;;;;;;10.96;100.00;101200.78;4988146;28;20113;-90
2022/04/17 00:15:56;;;;;;;34.78;32.40;;;;;;;11.10;100.00;101206.16;4991784;28;20050;-90
2022/04/17 00:18:26;;;;;;;34.03;31.92;;;;;;;10.93;100.00;101208.34;4992878;28;20162;-90
2022/04/17 00:20:53;;;;;;;31.30;28.88;;;;;;;11.31;100.00;101202.56;4992255;28;20054;-91
2022/04/17 00:23:20;;;;;;;31.75;29.65;;;;;;;10.58;100.00;101205.66;4991655;28;20498;-91
2022/04/17 00:25:47;;;;;;;33.00;30.33;;;;;;;10.89;100.00;101210.56;4988248;28;20054;-90
2022/04/17 00:28:14;;;;;;;31.05;29.27;;;;;;;10.61;100.00;101213.25;4992160;28;20080;-90
2022/04/17 00:30:42;;;;;;;36.00;33.65;;;;;;;10.64;100.00;101220.81;4992068;28;20056;-90
2022/04/17 00:33:11;;;;;;;31.65;29.50;;;;;;;10.40;100.00;101231.88;4992755;28;20047;-91
2022/04/17 00:35:43;;;;;;;30.92;28.88;;;;;;;10.78;100.00;101229.72;4995188;28;20138;-91
2022/04/17 00:38:10;;;;;;;33.50;31.23;;;;;;;10.43;100.00;101244.78;4991680;28;20141;-90
2022/04/17 00:40:36;;;;;;;33.55;31.33;;;;;;;9.98;100.00;101249.44;4995478;28;20043;-91
2022/04/17 00:43:04;;;;;;;37.58;34.67;;;;;;;9.86;100.00;101265.03;4995620;28;20062;-90
2022/04/17 00:45:30;;;;;;;32.85;31.13;;;;;;;11.00;100.00;101265.81;4994808;28;20511;-92
2022/04/17 00:47:57;;;;;;;34.38;32.40;;;;;;;10.61;100.00;101247.78;4995722;28;20060;-90
2022/04/17 00:50:24;;;;;;;33.20;31.17;;;;;;;9.90;100.00;101245.09;4994970;28;20049;-91
2022/04/17 00:52:52;;;;;;;33.83;31.60;;;;;;;9.89;100.00;101238.09;4995041;28;20050;-90
2022/04/17 00:55:19;;;;;;;33.35;31.40;;;;;;;9.85;100.00;101248.28;4994456;28;20058;-91
2022/04/17 00:57:46;;;;;;;33.50;31.50;;;;;;;9.89;100.00;101245.25;4994336;28;20046;-90
2022/04/17 01:00:14;;;;;;;39.88;37.67;;;;;;;10.19;100.00;101248.59;4995064;28;20046;-92
2022/04/17 01:02:47;;;;;;;38.90;36.70;;;;;;;9.53;100.00;101254.88;4995323;28;20066;-91
2022/04/17 01:05:14;;;;;;;37.28;35.15;;;;;;;9.64;100.00;101245.59;4995437;28;20042;-90
2022/04/17 01:07:41;;;;;;;33.60;31.55;;;;;;;9.47;100.00;101250.31;4994837;28;20072;-90
2022/04/17 01:10:12;;;;;;;40.60;38.00;;;;;;;9.51;100.00;101261.38;4994881;28;20061;-90
2022/04/17 01:12:39;;;;;;;37.95;35.30;;;;;;;10.23;100.00;101274.59;4994701;28;20046;-91
2022/04/17 01:15:07;;;;;;;36.67;34.03;;;;;;;9.81;100.00;101267.44;4994856;28;20060;-90
2022/04/17 01:17:37;;;;;;;35.35;32.50;;;;;;;9.03;100.00;101280.31;4995456;28;20042;-90
2022/04/17 01:20:06;;;;;;;38.42;35.20;;;;;;;8.77;100.00;101271.97;4994161;28;20050;-91
2022/04/17 01:22:37;;;;;;;40.78;38.42;;;;;;;9.08;100.00;101277.13;4994434;28;20050;-90
2022/04/17 01:27:50;;;;;;;37.40;34.42;;;;;;;8.99;100.00;101276.38;4993911;28;20170;-90
2022/04/17 01:30:19;;;;;;;38.72;35.88;;;;;;;9.01;100.00;101273.53;4994444;28;20160;-90
2022/04/17 01:32:46;;;;;;;41.45;37.90;;;;;;;8.81;100.00;101281.22;4995154;28;20052;-91
2022/04/17 01:35:15;;;;;;;41.15;38.30;;;;;;;9.04;100.00;101274.00;4994443;28;20046;-91
2022/04/17 01:37:47;;;;;;;37.90;35.10;;;;;;;9.50;100.00;101260.56;4994085;28;20058;-90
2022/04/17 01:40:14;;;;;;;32.03;30.27;;;;;;;10.00;100.00;101245.59;4994542;28;20050;-91
2022/04/17 01:42:41;;;;;;;36.05;33.20;;;;;;;9.45;100.00;101238.25;4994130;28;20384;-91
2022/04/17 01:45:08;;;;;;;32.90;30.60;;;;;;;8.72;100.00;101222.19;4993371;28;20060;-90
2022/04/17 01:47:35;;;;;;;38.00;35.45;;;;;;;8.82;100.00;101212.13;4994639;28;20050;-90
2022/04/17 01:50:02;;;;;;;37.42;35.30;;;;;;;9.17;100.00;101223.03;4994242;28;20062;-90
2022/04/17 01:52:29;;;;;;;34.08;31.33;;;;;;;9.40;100.00;101217.56;4993972;28;20479;-90
2022/04/17 01:54:58;;;;;;;36.92;33.80;;;;;;;9.79;100.00;101211.91;4994329;28;20047;-90
2022/04/17 01:57:24;;;;;;;36.75;33.83;;;;;;;9.11;100.00;101213.16;4985869;28;20046;-90
2022/04/17 01:59:51;;;;;;;34.30;31.67;;;;;;;9.89;100.00;101216.06;4994432;28;20042;-91
2022/04/17 02:02:18;;;;;;;33.10;30.65;;;;;;;8.75;100.00;101210.41;5091958;23;20054;-91
2022/04/17 02:04:45;;;;;;;35.22;32.92;;;;;;;8.87;100.00;101230.97;4993872;28;20125;-89
2022/04/17 02:07:12;;;;;;;42.17;39.03;;;;;;;8.50;100.00;101242.41;4993690;28;20056;-90
2022/04/17 02:09:39;;;;;;;37.60;34.85;;;;;;;8.12;100.00;101236.25;4993410;28;20050;-90
2022/04/17 02:12:08;;;;;;;37.50;34.65;;;;;;;9.28;100.00;101243.72;4993785;28;20093;-90
2022/04/17 02:14:36;;;;;;;38.90;35.75;;;;;;;8.69;100.00;101241.91;4993446;28;20443;-90
2022/04/17 02:17:05;;;;;;;40.05;37.40;;;;;;;8.25;100.00;101245.22;4994120;28;20077;-90
2022/04/17 02:19:32;;;;;;;39.80;36.95;;;;;;;7.99;100.00;101240.31;4993597;28;20042;-91
2022/04/17 02:21:59;;;;;;;38.25;35.38;;;;;;;8.21;100.00;101243.94;4993517;28;20478;-90
2022/04/17 02:24:26;;;;;;;39.63;36.67;;;;;;;7.93;100.00;101258.72;4993581;28;20046;-91
2022/04/17 02:26:53;;;;;;;45.45;42.42;;;;;;;7.71;100.00;101253.19;4993838;28;21515;-91
2022/04/17 02:29:24;;;;;;;44.20;40.20;;;;;;;7.74;100.00;101254.66;4993267;28;20047;-91
2022/04/17 02:31:51;;;;;;;40.60;37.80;;;;;;;7.79;100.00;101260.28;4993519;28;20047;-90
2022/04/17 02:34:17;;;;;;;39.63;36.85;;;;;;;7.92;100.00;101249.94;4993712;28;20042;-90
2022/04/17 02:36:47;;;;;;;36.85;34.17;;;;;;;7.94;100.00;101253.22;4993007;28;20053;-90
2022/04/17 02:39:13;;;;;;;35.65;32.63;;;;;;;7.85;100.00;101249.00;4990103;28;20050;-91
2022/04/17 02:41:40;;;;;;;33.50;31.27;;;;;;;9.02;100.00;101252.16;4993182;28;20042;-90
2022/04/17 02:44:07;;;;;;;34.08;31.05;;;;;;;8.18;100.00;101239.00;4992648;28;20054;-90
2022/04/17 02:49:24;;;;;;;37.80;35.30;;;;;;;8.10;100.00;101238.25;4980078;28;20045;-90
2022/04/17 02:51:51;;;;;;;40.83;37.90;;;;;;;8.08;100.00;101242.88;4992802;28;20042;-90
2022/04/17 02:54:18;;;;;;;37.38;34.85;;;;;;;8.64;100.00;101254.03;4992955;28;20077;-90
2022/04/17 02:56:45;;;;;;;34.95;32.75;;;;;;;9.30;100.00;101252.34;4992863;28;20073;-91
2022/04/17 02:59:20;;;;;;;39.38;35.95;;;;;;;8.06;100.00;101251.00;4993662;28;20054;-88
2022/04/17 03:07:32;;;;;;;32.78;30.42;;;;;;;7.48;100.00;101255.00;4983284;28;20058;-90
2022/04/17 03:10:02;;;;;;;37.75;35.00;;;;;;;7.85;100.00;101256.94;4993003;28;20138;-89
2022/04/17 03:12:31;;;;;;;36.85;33.85;;;;;;;7.38;100.00;101254.34;4992809;28;20104;-90
2022/04/17 03:14:58;;;;;;;37.60;34.95;;;;;;;7.69;100.00;101259.69;4992795;28;20426;-91
2022/04/17 03:17:27;;;;;;;38.03;35.03;;;;;;;8.36;100.00;101256.41;4993309;28;20043;-91
2022/04/17 03:19:54;;;;;;;33.78;31.42;;;;;;;7.38;100.00;101252.53;4992961;28;20074;-91
2022/04/17 03:22:22;;;;;;;37.63;34.38;;;;;;;7.25;100.00;101255.72;4992872;28;20042;-90
2022/04/17 03:24:49;;;;;;;37.17;34.33;;;;;;;7.78;100.00;101256.81;4993438;28;20109;-90
2022/04/17 03:27:16;;;;;;;35.97;33.10;;;;;;;7.32;100.00;101256.72;4992291;28;20046;-90
2022/04/17 03:29:43;;;;;;;35.15;32.45;;;;;;;6.83;100.00;101264.75;4992860;28;20065;-90
2022/04/17 03:32:10;;;;;;;39.55;36.00;;;;;;;7.13;100.00;101266.84;4989004;28;20058;-90
2022/04/17 03:34:38;;;;;;;37.28;34.15;;;;;;;6.83;100.00;101277.13;4992759;28;20046;-91
2022/04/17 03:37:06;;;;;;;39.05;35.90;;;;;;;6.90;100.00;101280.78;4992539;28;20061;-91
2022/04/17 03:39:35;;;;;;;37.63;34.28;;;;;;;6.86;100.00;101288.19;4992666;28;20054;-91
2022/04/17 03:42:02;;;;;;;36.50;33.72;;;;;;;6.61;100.00;101292.66;4992485;28;20050;-90
2022/04/17 03:44:29;;;;;;;38.67;35.85;;;;;;;6.69;100.00;101291.00;4992386;28;20097;-90
2022/04/17 03:46:56;;;;;;;38.38;35.05;;;;;;;6.78;100.00;101285.56;4992474;28;20046;-90
2022/04/17 03:49:24;;;;;;;37.42;34.63;;;;;;;7.94;100.00;101290.25;4992841;28;20419;-90
2022/04/17 03:51:53;;;;;;;34.72;32.13;;;;;;;7.82;100.00;101288.19;4992788;28;20073;-90
2022/04/17 03:54:20;;;;;;;38.55;35.53;;;;;;;7.37;100.00;101293.19;4992472;28;20046;-91
2022/04/17 03:56:52;;;;;;;37.58;34.75;;;;;;;7.05;100.00;101299.38;4992024;28;20182;-91
2022/04/17 03:59:19;;;;;;;39.05;35.45;;;;;;;6.51;100.00;101296.47;4991132;28;20050;-90
2022/04/17 04:01:47;;;;;;;36.85;33.88;;;;;;;6.66;100.00;101297.47;4991589;28;20517;-91
2022/04/17 04:04:14;;;;;;;36.90;33.80;;;;;;;6.31;100.00;101302.06;4992257;28;20047;-91
2022/04/17 04:06:42;;;;;;;35.92;32.95;;;;;;;6.26;100.00;101309.63;4992490;28;20060;-90
2022/04/17 04:09:10;;;;;;;33.35;30.55;;;;;;;6.76;100.00;101307.84;4993803;28;20057;-91
2022/04/17 04:11:37;;;;;;;34.22;31.55;;;;;;;6.24;100.00;101300.25;4994415;28;20054;-91
2022/04/17 04:14:07;;;;;;;34.20;31.40;;;;;;;6.19;100.00;101304.19;4996691;28;20487;-91
2022/04/17 04:16:34;;;;;;;34.70;31.40;;;;;;;6.15;100.00;101320.50;4995838;28;20043;-90
2022/04/17 04:19:00;;;;;;;34.10;31.40;;;;;;;6.42;100.00;101314.13;4996172;28;20050;-90
2022/04/17 04:21:27;;;;;;;35.67;32.65;;;;;;;6.16;100.00;101306.31;4996022;28;20056;-91
2022/04/17 04:23:54;;;;;;;34.20;31.17;;;;;;;6.15;100.00;101302.88;4996158;28;20050;-90
2022/04/17 04:26:22;;;;;;;33.90;30.85;;;;;;;6.62;100.00;101309.31;4996323;28;20050;-91
2022/04/17 04:28:48;;;;;;;34.15;31.30;;;;;;;6.27;100.00;101319.22;4995515;28;20054;-90
2022/04/17 04:31:15;;;;;;;34.50;31.35;;;;;;;6.15;100.00;101326.63;4995801;28;20116;-91
2022/04/17 04:33:44;;;;;;;35.05;31.67;;;;;;;6.27;100.00;101324.50;4995716;28;20054;-90
2022/04/17 04:36:12;;;;;;;37.38;34.08;;;;;;;5.99;100.00;101331.00;4995986;28;20058;-91
2022/04/17 04:38:42;;;;;;;33.45;30.80;;;;;;;6.38;100.00;101347.09;4995887;28;20056;-90
2022/04/17 04:41:09;;;;;;;33.45;30.85;;;;;;;6.65;100.00;101353.88;4995667;28;20141;-91
2022/04/17 04:43:37;;;;;;;34.35;31.50;;;;;;;5.88;100.00;101335.56;4995285;28;20050;-91
2022/04/17 04:46:09;;;;;;;34.75;32.15;;;;;;;5.95;100.00;101335.78;4995615;28;20054;-90
2022/04/17 04:51:22;;;;;;;34.78;31.92;;;;;;;5.78;100.00;101334.88;4994421;28;20053;-90
2022/04/17 04:53:50;;;;;;;37.47;34.30;;;;;;;5.65;100.00;101331.84;4995639;28;20454;-90
2022/04/17 04:56:17;;;;;;;34.70;32.00;;;;;;;5.83;100.00;101345.75;4994983;28;20057;-91
2022/04/17 04:58:48;;;;;;;37.00;34.00;;;;;;;5.62;100.00;101338.25;4995661;28;20420;-92
2022/04/17 05:01:16;;;;;;;34.30;31.70;;;;;;;5.60;100.00;101340.25;4994716;28;20065;-90
2022/04/17 05:03:43;;;;;;;33.15;30.65;;;;;;;6.43;100.00;101336.88;4995122;28;20463;-90
2022/04/17 05:06:10;;;;;;;32.17;29.77;;;;;;;5.64;100.00;101319.66;4995526;28;20046;-90
2022/04/17 05:08:37;;;;;;;33.45;30.65;;;;;;;5.53;100.00;101318.13;4995151;28;20130;-91
2022/04/17 05:11:04;;;;;;;30.60;28.25;;;;;;;8.07;100.00;101323.25;4995064;28;20577;-90
2022/04/17 05:13:31;;;;;;;32.40;30.00;;;;;;;5.93;100.00;101319.28;4994870;28;20066;-90
2022/04/17 05:16:00;;;;;;;30.98;28.73;;;;;;;5.95;100.00;101319.97;4994643;28;20579;-90
2022/04/17 05:18:27;;;;;;;32.65;30.05;;;;;;;5.69;100.00;101326.13;4995413;28;20054;-91
2022/04/17 05:20:55;;;;;;;32.58;30.30;;;;;;;5.66;100.00;101326.44;4993723;28;20078;-91
2022/04/17 05:23:26;;;;;;;33.10;30.67;;;;;;;6.96;100.00;101324.16;4994761;28;20109;-91
2022/04/17 05:25:56;;;;;;;34.58;32.08;;;;;;;5.47;100.00;101327.47;4995201;28;20132;-90
2022/04/17 05:28:28;;;;;;;33.83;31.23;;;;;;;5.55;100.00;101324.06;4994949;28;20087;-90
2022/04/17 05:30:56;;;;;;;36.17;33.00;;;;;;;5.87;100.00;101312.84;4994506;28;20490;-90
2022/04/17 05:33:24;;;;;;;35.95;33.15;;;;;;;5.54;100.00;101321.59;4994943;28;20051;-91
2022/04/17 05:35:56;;;;;;;31.42;29.15;;;;;;;7.17;100.00;101323.63;4994714;28;20404;-90
2022/04/17 05:38:22;;;;;;;34.30;31.48;;;;;;;5.71;100.00;101321.50;4994214;28;20061;-90
2022/04/17 05:40:51;;;;;;;33.42;31.02;;;;;;;5.67;100.00;101322.81;4993991;28;20121;-91
2022/04/17 05:43:18;;;;;;;34.83;32.00;;;;;;;7.42;100.00;101324.41;4994315;28;20064;-91
2022/04/17 05:45:48;;;;;;;34.30;31.85;;;;;;;6.86;100.00;101333.06;4994383;28;20049;-90
2022/04/17 05:48:20;;;;;;;34.47;31.88;;;;;;;6.56;100.00;101328.47;4994771;28;20495;-91
2022/04/17 05:50:48;;;;;;;;;;;;;;;5.41;100.00;101338.66;4994470;28;20042;-90
2022/04/17 05:53:17;;;;;;;34.97;32.08;;;;;;;5.75;100.00;101327.31;4994535;28;19947;-91
2022/04/17 05:55:46;;;;;;;35.35;32.55;;;;;;;5.21;100.00;101324.91;4993987;28;20042;-90
2022/04/17 05:58:12;;;;;;;35.35;32.47;;;;;;;5.25;100.00;101328.88;4994221;28;20053;-89
2022/04/17 06:00:42;;;;;;;34.97;32.17;;;;;;;5.23;100.00;101324.72;4993781;28;20050;-91
2022/04/17 06:03:12;;;;;;;32.78;30.27;;;;;;;5.21;100.00;101332.81;4956643;28;20085;-90
2022/04/17 06:05:40;;;;;;;33.33;30.83;;;;;;;5.82;100.00;101324.84;4955243;28;20062;-91
2022/04/17 06:08:09;;;;;;;34.65;31.42;;;;;;;6.73;100.00;101329.31;4951058;29;20051;-91
2022/04/17 06:10:35;;;;;;;34.83;32.08;;;;;;;5.48;100.00;101317.78;4955117;29;20058;-90
2022/04/17 06:13:02;;;;;;;33.03;30.63;;;;;;;6.02;100.00;101313.06;4955599;29;20054;-90
2022/04/17 06:15:29;;;;;;;32.00;29.55;;;;;;;6.59;100.00;101304.38;4954910;28;20062;-89
2022/04/17 06:17:58;;;;;;;32.25;29.75;;;;;;;5.61;100.00;101315.53;4955799;28;20501;-91
2022/04/17 06:20:28;;;;;;;33.20;30.55;;;;;;;6.74;100.00;101321.19;4954750;29;20043;-91
2022/04/17 06:22:55;;;;;;;33.30;30.88;;;;;;;5.73;100.00;101310.81;4954959;28;20047;-91
2022/04/17 06:25:28;;;;;;;31.02;28.58;;;;;;;5.95;100.00;101309.41;4954974;28;20051;-90
2022/04/17 06:27:56;;;;;;;33.03;30.45;;;;;;;5.59;100.00;101308.78;4955177;29;20066;-91
2022/04/17 06:30:23;;;;;;;31.48;29.00;;;;;;;6.22;100.00;101318.88;4954793;29;20138;-91
2022/04/17 06:32:50;;;;;;;33.40;30.75;;;;;;;6.63;100.00;101321.56;4954883;28;20069;-90
2022/04/17 06:35:18;;;;;;;31.13;28.85;;;;;;;9.38;100.00;101344.22;4954658;28;20113;-90
2022/04/17 06:37:50;;;;;;;33.50;30.90;;;;;;;5.81;100.00;101326.66;4954932;29;20435;-90
2022/04/17 06:40:22;;;;;;;34.70;31.83;;;;;;;6.63;100.00;101347.94;4955040;29;20139;-90
2022/04/17 06:42:52;;;;;;;36.87;34.10;;;;;;;5.92;100.00;101334.25;4954255;28;20058;-91
2022/04/17 06:45:23;;;;;;;34.63;32.10;;;;;;;6.62;100.00;101344.47;4954463;28;20303;-90
2022/04/17 06:47:50;;;;;;;34.30;31.73;;;;;;;5.61;100.00;101344.53;4951765;29;20172;-89
2022/04/17 06:50:18;;;;;;;36.63;33.83;;;;;;;5.56;100.00;101346.81;4954704;29;20051;-91
2022/04/17 06:52:54;;;;;;;34.65;31.80;;;;;;;6.95;100.00;101349.72;4952835;29;20183;-93
2022/04/17 06:55:23;;;;;;;36.55;33.65;;;;;;;9.25;100.00;101350.13;4950111;29;20520;-90
2022/04/17 06:57:54;;;;;;;39.45;36.40;;;;;;;5.65;100.00;101355.56;4952439;29;20063;-91
2022/04/17 07:00:22;;;;;;;35.88;32.72;;;;;;;6.62;100.00;101351.56;4954003;28;20457;-91
2022/04/17 07:02:52;;;;;;;35.65;32.75;;;;;;;5.87;100.00;101355.03;4988364;28;20066;-90
2022/04/17 07:05:19;;;;;;;39.22;35.92;;;;;;;5.73;100.00;101353.81;4993007;28;20054;-90
2022/04/17 07:07:46;;;;;;;33.53;30.85;;;;;;;5.80;100.00;101358.44;4992762;28;20043;-91
2022/04/17 07:10:13;;;;;;;34.95;32.05;;;;;;;6.59;100.00;101367.72;4992858;28;20042;-91
2022/04/17 07:12:42;;;;;;;41.80;37.90;;;;;;;6.53;100.00;101373.66;4992919;28;20050;-90
2022/04/17 07:15:11;;;;;;;38.25;35.03;;;;;;;5.57;100.00;101369.56;4992864;28;20050;-90
2022/04/17 07:17:40;;;;;;;33.58;30.85;;;;;;;7.27;100.00;101374.47;4992891;28;20133;-91
2022/04/17 07:20:15;;;;;;;33.08;30.63;;;;;;;6.01;100.00;101381.78;4992873;28;20046;-90
2022/04/17 07:22:44;;;;;;;34.95;32.50;;;;;;;6.53;100.00;101387.69;4992195;28;20065;-90
2022/04/17 07:25:13;;;;;;;32.67;29.98;;;;;;;5.39;100.00;101377.53;4992737;28;20070;-91
2022/04/17 07:27:45;;;;;;;34.72;31.70;;;;;;;6.35;100.00;101387.81;4992862;28;20440;-90
2022/04/17 07:30:15;;;;;;;32.08;29.88;;;;;;;5.94;100.00;101395.59;4992652;28;20057;-90
2022/04/17 07:32:48;;;;;;;30.50;28.45;;;;;;;5.87;100.00;101391.09;4993442;28;20073;-90
2022/04/17 07:35:16;;;;;;;31.75;29.58;;;;;;;7.23;100.00;101394.28;4991985;28;20504;-90
2022/04/17 07:37:50;;;;;;;30.58;28.63;;;;;;;6.14;100.00;101397.97;4991777;28;20053;-90
2022/04/17 07:40:22;;;;;;;30.75;28.67;;;;;;;6.49;100.00;101396.91;4992628;28;20046;-91
2022/04/17 07:42:52;;;;;;;30.65;28.65;;;;;;;6.54;100.00;101393.81;4992907;28;20079;-90
2022/04/17 07:45:22;;;;;;;32.78;30.67;;;;;;;5.33;100.00;101401.03;4996222;28;20077;-90
2022/04/17 07:47:49;;;;;;;31.40;29.20;;;;;;;5.89;100.00;101397.84;4993576;28;20137;-90
2022/04/17 07:50:18;;;;;;;30.58;28.48;;;;;;;5.07;100.00;101393.09;4996595;28;20054;-91
2022/04/17 07:52:45;;;;;;;26.60;24.90;;;;;;;7.07;100.00;101401.22;4996420;28;20518;-90
2022/04/17 07:55:20;;;;;;;29.42;27.48;;;;;;;6.76;100.00;101389.69;4995648;28;20061;-90
2022/04/17 07:58:07;;;;;;;31.33;29.23;;;;;;;5.43;100.00;101393.84;4995306;28;20053;-90
2022/04/17 08:00:44;;;;;;;31.10;29.10;;;;;;;4.99;100.00;101399.97;4995732;28;20043;-90
2022/04/17 08:03:24;;;;;;;30.75;28.65;;;;;;;5.14;100.00;101394.13;4996719;28;20060;-90
2022/04/17 08:05:53;;;;;;;29.42;27.23;;;;;;;6.14;100.00;101395.34;4996090;28;20081;-91
2022/04/17 08:08:21;;;;;;;29.33;27.25;;;;;;;5.19;100.00;101391.88;4995918;28;20427;-91
2022/04/17 08:10:50;;;;;;;29.10;27.10;;;;;;;6.06;100.00;101377.69;4991655;28;20050;-90
2022/04/17 08:13:20;;;;;;;28.38;26.55;;;;;;;6.35;100.00;101393.09;4995435;28;20142;-91
2022/04/17 08:15:50;;;;;;;29.55;27.40;;;;;;;5.57;100.00;101373.97;4995796;28;20061;-90
2022/04/17 08:18:23;;;;;;;29.90;27.90;;;;;;;5.69;100.00;101393.84;4995909;28;20050;-90
2022/04/17 08:20:49;;;;;;;;;;;;;;;5.62;100.00;101388.34;4995777;28;20046;-91
2022/04/17 08:23:17;;;;;;;27.05;25.25;;;;;;;6.89;100.00;101390.84;4996148;28;19928;-91
2022/04/17 08:25:44;;;;;;;28.25;26.40;;;;;;;7.11;100.00;101392.00;4995910;28;20113;-91
2022/04/17 08:28:11;;;;;;;27.00;25.35;;;;;;;7.86;100.00;101393.44;4996101;28;20134;-91
2022/04/17 08:30:38;;;;;;;29.65;27.65;;;;;;;6.85;100.00;101392.16;4995661;28;20054;-91
2022/04/17 08:33:08;;;;;;;27.65;25.95;;;;;;;6.77;100.00;101393.97;4996295;28;20128;-91
2022/04/17 08:35:36;;;;;;;28.65;26.33;;;;;;;5.58;100.00;101389.66;4995202;28;20058;-91
2022/04/17 08:38:03;;;;;;;27.08;25.30;;;;;;;5.44;100.00;101400.75;4995995;28;20053;-90
2022/04/17 08:40:31;;;;;;;26.98;25.15;;;;;;;5.52;100.00;101395.53;4995409;28;20042;-91
2022/04/17 08:43:00;;;;;;;28.05;26.15;;;;;;;6.24;100.00;101387.31;4987262;28;20054;-90
2022/04/17 08:45:27;;;;;;;27.90;26.10;;;;;;;5.35;100.00;101414.84;4995809;28;20129;-91
2022/04/17 08:47:55;;;;;;;27.13;25.42;;;;;;;6.06;100.00;101398.78;4995586;28;20450;-90
2022/04/17 08:50:24;;;;;;;27.67;25.88;;;;;;;5.10;100.00;101398.88;4995409;28;20058;-91
2022/04/17 08:52:53;;;;;;;26.63;24.90;;;;;;;5.98;100.00;101396.13;4995568;28;20061;-90
2022/04/17 08:55:20;;;;;;;26.52;24.77;;;;;;;5.37;100.00;101400.56;4994859;28;20419;-91
2022/04/17 08:57:50;;;;;;;27.17;25.42;;;;;;;5.22;100.00;101399.47;4995064;28;20050;-90
2022/04/17 09:00:19;;;;;;;27.00;25.30;;;;;;;5.40;100.00;101399.41;4995050;28;20055;-91
2022/04/17 09:02:50;;;;;;;26.17;24.67;;;;;;;6.10;100.00;101402.75;4987239;28;20058;-90
2022/04/17 09:05:19;;;;;;;27.30;25.50;;;;;;;5.13;100.00;101397.75;4994971;28;20054;-90
2022/04/17 09:07:50;;;;;;;27.90;26.10;;;;;;;5.92;100.00;101396.72;4994239;28;20540;-91
2022/04/17 09:10:30;;;;;;;28.25;26.52;;;;;;;6.71;100.00;101394.63;4994428;28;20050;-90
2022/04/17 09:12:59;;;;;;;26.55;24.85;;;;;;;4.96;100.00;101392.38;4995483;28;20058;-90
2022/04/17 09:15:28;;;;;;;26.67;24.77;;;;;;;5.10;100.00;101395.44;4995561;28;20050;-90
2022/04/17 09:17:55;;;;;;;26.42;24.83;;;;;;;5.53;100.00;101399.00;4995730;28;20046;-91
2022/04/17 09:20:25;;;;;;;27.50;25.80;;;;;;;5.19;100.00;101399.78;4995226;28;20057;-91
2022/04/17 09:22:54;;;;;;;27.27;25.25;;;;;;;4.76;100.00;101389.06;4994842;28;20054;-91
2022/04/17 09:25:26;;;;;;;27.33;25.45;;;;;;;4.31;100.00;101387.31;4994731;28;20504;-90
2022/04/17 09:28:00;;;;;;;27.45;25.60;;;;;;;5.58;100.00;101399.38;4994979;28;20058;-90
2022/04/17 09:30:32;;;;;;;25.70;24.00;;;;;;;4.71;100.00;101401.84;4994977;28;20050;-91
2022/04/17 09:33:03;;;;;;;25.67;24.02;;;;;;;5.69;100.00;101399.94;4995336;28;20423;-90
2022/04/17 09:35:30;;;;;;;27.23;25.52;;;;;;;5.20;100.00;101399.59;4994769;28;20408;-90
2022/04/17 09:38:00;;;;;;;26.20;24.70;;;;;;;5.45;100.00;101397.16;4994600;28;20058;-91
2022/04/17 09:40:28;;;;;;;26.45;24.85;;;;;;;4.47;100.00;101385.84;4994663;28;20066;-90
2022/04/17 09:43:15;;;;;;;25.23;23.83;;;;;;;7.59;100.00;101394.69;4994372;28;20054;-91
2022/04/17 09:46:00;;;;;;;25.52;23.92;;;;;;;5.08;100.00;101376.31;4986484;28;20054;-91
2022/04/17 09:48:32;;;;;;;25.83;24.25;;;;;;;5.46;100.00;101388.25;4987723;28;20050;-89
2022/04/17 09:51:00;;;;;;;24.05;22.85;;;;;;;6.20;100.00;101373.59;4995045;28;20136;-90
2022/04/17 09:53:40;;;;;;;25.15;23.77;;;;;;;5.14;100.00;101373.88;4994537;28;20050;-90
2022/04/17 09:56:13;;;;;;;24.90;23.45;;;;;;;4.93;100.00;101371.63;4994516;28;20046;-90
2022/04/17 09:58:45;;;;;;;25.40;24.00;;;;;;;5.56;100.00;101373.16;4994699;28;20401;-90
2022/04/17 10:01:18;;;;;;;25.58;23.88;;;;;;;5.35;100.00;101373.53;4990733;28;20249;-91
2022/04/17 10:03:46;;;;;;;24.33;23.02;;;;;;;6.01;100.00;101377.34;4994961;28;20054;-90
2022/04/17 10:06:17;;;;;;;26.05;24.35;;;;;;;4.69;100.00;101380.13;4994315;28;20112;-91
2022/04/17 10:08:48;;;;;;;25.60;24.25;;;;;;;6.86;100.00;101383.25;4994215;28;20054;-91
2022/04/17 10:11:18;;;;;;;25.25;23.75;;;;;;;7.11;100.00;101381.44;4993171;28;20423;-90
2022/04/17 10:13:47;;;;;;;27.17;25.60;;;;;;;5.83;100.00;101372.13;4993595;28;20133;-90
2022/04/17 10:16:20;;;;;;;26.65;24.95;;;;;;;5.30;100.00;101381.09;4993449;28;20499;-90
2022/04/17 10:18:49;;;;;;;27.02;25.50;;;;;;;7.99;100.00;101377.88;5000341;28;20046;-89
2022/04/17 10:21:24;;;;;;;26.40;24.90;;;;;;;7.01;100.00;101369.38;4998524;28;20077;-88
2022/04/17 10:24:00;;;;;;;26.63;25.13;;;;;;;6.64;100.00;101365.44;5004102;28;20114;-90
2022/04/17 10:26:29;;;;;;;25.88;24.45;;;;;;;8.05;100.00;101355.19;4993168;28;20133;-90
2022/04/17 10:29:01;;;;;;;26.77;25.27;;;;;;;5.55;100.00;101360.97;4993690;28;20140;-91
2022/04/17 10:31:38;;;;;;;26.05;24.63;;;;;;;6.20;100.00;101357.75;4993401;28;20129;-90
2022/04/17 10:34:33;;;;;;;24.95;23.55;;;;;;;5.88;100.00;101355.84;4993497;28;20065;-91
2022/04/17 10:37:23;;;;;;;28.27;26.67;;;;;;;4.99;100.00;101357.84;4992697;28;20419;-90
2022/04/17 10:39:57;;;;;;;26.88;25.48;;;;;;;6.50;100.00;101350.22;4985712;28;20070;-90
2022/04/17 10:42:37;;;;;;;25.80;24.20;;;;;;;5.37;100.00;101353.13;4992605;28;20060;-90
2022/04/17 10:45:08;;;;;;;26.88;25.38;;;;;;;7.18;100.00;101351.72;4992103;28;20050;-90
2022/04/17 10:47:35;;;;;;;27.30;25.80;;;;;;;5.95;100.00;101348.97;4992058;28;20478;-90
2022/04/17 10:50:09;;;;;;;26.30;24.80;;;;;;;6.25;100.00;101339.66;4993306;28;20050;-91
2022/04/17 10:52:37;;;;;;;26.80;25.30;;;;;;;6.14;100.00;101337.31;4992360;28;20057;-90
2022/04/17 10:55:20;;;;;;;27.25;25.70;;;;;;;5.78;100.00;101336.69;4993102;28;20077;-91
2022/04/17 10:57:50;;;;;;;28.23;26.50;;;;;;;6.50;100.00;101335.22;4992972;28;20101;-90
2022/04/17 11:00:36;;;;;;;26.85;25.25;;;;;;;7.42;100.00;101327.84;4993385;28;20054;-90
2022/04/17 11:03:10;;;;;;;26.08;24.38;;;;;;;5.56;100.00;101309.09;4987683;28;20141;-91
2022/04/17 11:08:45;;;;;;;56.60;51.80;;;;;;;4.59;100.00;101322.31;4991071;28;20053;-90
2022/04/17 11:11:14;;;;;;;59.20;54.45;;;;;;;5.15;100.00;101325.53;4992814;28;20061;-91
2022/04/17 11:14:05;;;;;;;60.92;55.97;;;;;;;5.48;100.00;101318.63;4993105;28;20057;-91
2022/04/17 11:16:39;;;;;;;62.28;57.38;;;;;;;5.31;100.00;101303.72;4992104;28;20079;-91
2022/04/17 11:19:11;;;;;;;57.20;53.03;;;;;;;6.73;100.00;101305.53;4992954;28;20053;-90
2022/04/17 11:21:39;;;;;;;55.35;51.45;;;;;;;8.28;100.00;101302.28;4992827;28;20058;-90
2022/04/17 11:24:06;;;;;;;60.20;55.80;;;;;;;6.92;100.00;101294.63;4992897;28;20511;-91
2022/04/17 11:27:10;;;;;;;59.35;54.90;;;;;;;5.69;100.00;101289.22;4993643;28;20050;-91
2022/04/17 11:29:42;;;;;;;59.50;55.00;;;;;;;6.92;100.00;101302.53;4989274;28;20585;-91
2022/04/17 11:32:29;;;;;;;;;;;;;;;6.19;100.00;101304.19;4993922;28;20133;-91
2022/04/17 11:34:58;;;;;;;58.75;54.25;;;;;;;5.73;100.00;101301.09;4992736;28;19925;-90
2022/04/17 11:37:27;;;;;;;55.60;51.70;;;;;;;5.48;100.00;101320.44;4992590;28;20070;-91